Time;durP1;ratioP1;P1;durP2;ratioP2;P2;SDS_P1;SDS_P2;PMS_P1;PMS_P2;Temp;Humidity;BMP_temperature;BMP_pressure;BME280_temperature;BME280_humidity;BME280_pressure;Samples;Min_cycle;Max_cycle;Signal;HPM_P1;HPM_P2
2023/01/08 00:01:15;;;;;;;25.93;22.53;;;;;;;1.02;100.00;96673.66;5038516;28;20361;-72
2023/01/08 00:03:43;;;;;;;28.87;25.20;;;;;;;1.08;100.00;96674.88;5032902;28;20744;-72
2023/01/08 00:06:12;;;;;;;28.50;23.47;;;;;;;1.07;100.00;96674.06;5039833;28;20204;-72
2023/01/08 00:08:40;;;;;;;35.83;27.57;;;;;;;1.15;100.00;96674.19;5044464;28;20246;-71
2023/01/08 00:11:07;;;;;;;28.10;24.13;;;;;;;1.19;100.00;96677.34;5044448;28;20214;-74
2023/01/08 00:13:35;;;;;;;30.87;23.37;;;;;;;1.21;100.00;96672.81;5002184;28;20926;-72
2023/01/08 00:16:05;;;;;;;26.53;23.63;;;;;;;1.24;100.00;96679.53;5040325;28;20207;-74
2023/01/08 00:18:33;;;;;;;27.43;24.43;;;;;;;1.29;100.00;96675.56;5027141;28;21516;-72
2023/01/08 00:21:01;;;;;;;32.00;24.00;;;;;;;1.30;100.00;96671.16;5044617;28;20753;-71
2023/01/08 00:23:28;;;;;;;31.33;24.83;;;;;;;1.26;100.00;96660.19;5042002;28;20198;-70
2023/01/08 00:25:56;;;;;;;28.40;24.40;;;;;;;1.26;100.00;96654.13;5046351;28;20257;-73
2023/01/08 00:28:24;;;;;;;34.83;23.93;;;;;;;1.17;100.00;96647.13;5003968;28;20262;-72
2023/01/08 00:30:51;;;;;;;25.50;22.67;;;;;;;1.14;100.00;96640.41;5041866;28;20230;-73
2023/01/08 00:33:20;;;;;;;27.57;22.90;;;;;;;1.05;100.00;96636.84;5043469;28;20230;-72
2023/01/08 00:35:48;;;;;;;27.60;21.20;;;;;;;1.05;100.00;96625.56;5032775;28;20207;-72
2023/01/08 00:38:15;;;;;;;36.20;28.60;;;;;;;1.08;100.00;96625.28;5041394;28;20230;-72
2023/01/08 00:40:43;;;;;;;27.70;23.97;;;;;;;1.06;100.00;96617.63;5041061;28;20870;-72
2023/01/08 00:43:11;;;;;;;25.83;23.03;;;;;;;1.04;100.00;96622.16;5047199;28;20207;-73
2023/01/08 00:45:42;;;;;;;27.37;23.93;;;;;;;1.03;100.00;96623.13;5012558;28;20769;-72
2023/01/08 00:48:09;;;;;;;28.33;23.53;;;;;;;1.07;100.00;96628.84;5042446;28;20238;-72
2023/01/08 00:50:38;;;;;;;29.63;24.93;;;;;;;1.06;100.00;96622.84;5022869;28;20415;-71
2023/01/08 00:53:06;;;;;;;33.33;25.80;;;;;;;1.02;100.00;96613.63;5041048;28;20221;-72
2023/01/08 00:55:33;;;;;;;29.57;24.27;;;;;;;1.05;100.00;96610.75;5038165;28;20440;-72
2023/01/08 00:58:01;;;;;;;30.17;23.90;;;;;;;1.09;100.00;96614.72;5045985;28;20539;-72
2023/01/08 01:00:28;;;;;;;34.10;25.87;;;;;;;1.20;100.00;96613.75;4999247;28;20610;-72
2023/01/08 01:02:56;;;;;;;34.47;25.63;;;;;;;1.30;100.00;96613.72;4991125;28;20303;-72
2023/01/08 01:05:23;;;;;;;31.93;25.00;;;;;;;1.32;100.00;96613.59;5022791;28;20210;-71
2023/01/08 01:07:52;;;;;;;31.23;23.80;;;;;;;1.23;100.00;96613.47;5043338;28;20203;-72
2023/01/08 01:10:20;;;;;;;30.37;23.77;;;;;;;1.15;100.00;96606.34;5046393;28;20242;-70
2023/01/08 01:12:47;;;;;;;32.23;25.67;;;;;;;1.15;100.00;96613.34;5046762;28;20218;-71
2023/01/08 01:15:17;;;;;;;30.83;24.10;;;;;;;1.15;100.00;96611.56;5043216;28;20416;-73
2023/01/08 01:17:45;;;;;;;33.10;23.97;;;;;;;1.09;100.00;96601.69;5029000;28;20312;-72
2023/01/08 01:20:15;;;;;;;32.00;24.73;;;;;;;1.28;100.00;96613.88;5025610;28;20454;-73
2023/01/08 01:22:43;;;;;;;30.93;25.20;;;;;;;1.25;100.00;96623.75;5044203;28;20567;-72
2023/01/08 01:25:12;;;;;;;34.00;25.17;;;;;;;1.24;100.00;96615.13;5043807;28;20418;-71
2023/01/08 01:27:40;;;;;;;31.47;24.40;;;;;;;1.17;100.00;96615.81;5045482;28;20207;-71
2023/01/08 01:30:09;;;;;;;30.23;24.60;;;;;;;1.07;100.00;96614.03;5046025;28;20223;-71
2023/01/08 01:32:37;;;;;;;31.73;24.20;;;;;;;1.01;100.00;96612.00;5044242;28;20225;-72
2023/01/08 01:35:06;;;;;;;31.40;24.20;;;;;;;0.99;100.00;96612.13;5002294;28;20849;-73
2023/01/08 01:37:33;;;;;;;31.23;24.47;;;;;;;0.90;100.00;96609.50;5043000;28;20426;-72
2023/01/08 01:40:01;;;;;;;31.87;24.83;;;;;;;0.86;100.00;96617.59;5043538;28;20340;-73
2023/01/08 01:42:40;;;;;;;29.53;23.93;;;;;;;0.80;100.00;96615.53;5043578;28;20674;-71
2023/01/08 01:45:15;;;;;;;34.27;23.87;;;;;;;0.73;100.00;96604.00;5040464;28;20206;-72
2023/01/08 01:47:45;;;;;;;37.60;23.90;;;;;;;0.70;100.00;96612.91;5027628;28;20206;-71
2023/01/08 01:50:15;;;;;;;38.50;24.93;;;;;;;0.65;100.00;96604.69;5025246;28;20398;-72
2023/01/08 01:52:45;;;;;;;45.67;26.03;;;;;;;0.62;100.00;96609.38;5039253;28;20424;-73
2023/01/08 01:55:14;;;;;;;38.97;25.70;;;;;;;0.49;100.00;96588.75;5047468;28;20752;-72
2023/01/08 01:57:46;;;;;;;42.97;23.70;;;;;;;0.57;100.00;96596.72;5044966;28;20226;-73
2023/01/08 02:00:14;;;;;;;64.90;26.73;;;;;;;0.57;100.00;96591.50;5045365;28;20818;-72
2023/01/08 02:02:42;;;;;;;89.93;28.70;;;;;;;0.49;100.00;96588.75;5035850;28;20578;-71
2023/01/08 02:05:10;;;;;;;155.67;38.80;;;;;;;0.43;100.00;96598.78;5013503;28;20359;-73
2023/01/08 02:07:41;;;;;;;147.57;34.50;;;;;;;0.32;100.00;96593.66;5040615;28;20585;-72
2023/01/08 02:10:11;;;;;;;193.07;39.53;;;;;;;0.24;100.00;96602.16;5044293;28;20317;-73
2023/01/08 02:12:44;;;;;;;135.57;37.23;;;;;;;0.19;100.00;96600.91;5045212;28;20567;-73
2023/01/08 02:15:16;;;;;;;36.73;22.10;;;;;;;0.25;100.00;96592.56;5043447;28;20210;-73
2023/01/08 02:17:48;;;;;;;104.77;35.17;;;;;;;0.32;100.00;96582.44;5039550;28;20215;-73
2023/01/08 02:20:19;;;;;;;74.40;28.67;;;;;;;0.32;100.00;96595.47;5000954;28;20234;-72
2023/01/08 02:22:55;;;;;;;52.67;25.33;;;;;;;0.36;100.00;96586.41;5034451;28;20680;-72
2023/01/08 02:25:32;;;;;;;41.50;25.10;;;;;;;0.42;100.00;96575.44;5045053;28;20625;-73
2023/01/08 02:28:05;;;;;;;32.83;24.47;;;;;;;0.48;100.00;96582.72;5040158;28;20828;-70
2023/01/08 02:30:32;;;;;;;35.97;24.27;;;;;;;0.50;100.00;96583.41;5045036;28;20209;-72
2023/01/08 02:33:00;;;;;;;130.03;33.30;;;;;;;0.45;100.00;96582.19;5040690;28;21025;-73
2023/01/08 02:35:34;;;;;;;144.20;40.77;;;;;;;0.42;100.00;96583.25;4999333;28;20234;-73
2023/01/08 02:38:02;;;;;;;204.97;40.83;;;;;;;0.38;100.00;96577.50;5043394;28;20714;-73
2023/01/08 02:40:33;;;;;;;200.53;42.10;;;;;;;0.33;100.00;96573.66;5049869;28;20210;-72
2023/01/08 02:43:08;;;;;;;53.40;25.67;;;;;;;0.44;100.00;96565.69;5044698;28;20214;-72
2023/01/08 02:45:39;;;;;;;70.63;28.10;;;;;;;0.55;100.00;96565.56;5050030;28;20205;-72
2023/01/08 02:48:09;;;;;;;102.03;29.30;;;;;;;0.54;100.00;96556.09;5035954;28;20872;-72
2023/01/08 02:50:40;;;;;;;93.60;30.23;;;;;;;0.50;100.00;96538.28;5008244;28;20210;-72
2023/01/08 02:53:12;;;;;;;104.37;30.13;;;;;;;0.61;100.00;96545.16;5046135;28;20328;-73
2023/01/08 02:55:41;;;;;;;49.13;25.73;;;;;;;0.63;100.00;96545.84;5039998;28;20199;-71
2023/01/08 02:58:11;;;;;;;88.40;30.50;;;;;;;0.66;100.00;96555.97;5046289;28;20301;-72
2023/01/08 03:00:40;;;;;;;136.97;35.60;;;;;;;0.65;100.00;96565.56;5026699;28;20218;-74
2023/01/08 03:03:11;;;;;;;124.40;35.23;;;;;;;0.62;100.00;96558.03;5042368;28;20674;-72
2023/01/08 03:05:40;;;;;;;79.20;32.00;;;;;;;0.67;100.00;96552.41;4985002;28;20931;-73
2023/01/08 03:08:09;;;;;;;47.77;26.30;;;;;;;0.64;100.00;96537.06;5046401;28;20230;-73
2023/01/08 03:10:38;;;;;;;64.67;27.47;;;;;;;0.69;100.00;96551.31;4996957;28;20203;-73
2023/01/08 03:13:09;;;;;;;61.40;29.60;;;;;;;0.69;100.00;96551.31;5020275;28;20520;-73
2023/01/08 03:15:45;;;;;;;88.40;29.80;;;;;;;0.78;100.00;96541.03;5050666;28;20210;-73
2023/01/08 03:18:16;;;;;;;112.00;32.57;;;;;;;0.80;100.00;96539.09;5013989;28;22329;-73
2023/01/08 03:20:45;;;;;;;91.13;31.37;;;;;;;0.69;100.00;96540.06;5034219;28;20203;-73
2023/01/08 03:23:14;;;;;;;88.87;27.40;;;;;;;0.64;100.00;96534.44;5045479;28;20211;-73
2023/01/08 03:25:45;;;;;;;217.47;48.50;;;;;;;0.69;100.00;96540.88;5001563;28;20208;-72
2023/01/08 03:28:15;;;;;;;62.63;28.20;;;;;;;0.80;100.00;96550.34;5041985;28;20207;-72
2023/01/08 03:30:45;;;;;;;35.90;26.97;;;;;;;0.94;100.00;96532.59;5041620;28;20312;-73
2023/01/08 03:33:14;;;;;;;52.90;33.37;;;;;;;1.09;100.00;96544.28;4998665;28;20266;-72
2023/01/08 03:35:43;;;;;;;47.57;32.60;;;;;;;1.18;100.00;96541.78;5037484;28;20783;-71
2023/01/08 03:38:15;;;;;;;46.87;32.10;;;;;;;1.18;100.00;96547.00;5032629;28;20213;-72
2023/01/08 03:40:46;;;;;;;56.70;32.10;;;;;;;1.15;100.00;96535.06;5045193;28;20512;-71
2023/01/08 03:43:14;;;;;;;48.13;33.10;;;;;;;1.15;100.00;96529.84;4998123;28;20222;-69
2023/01/08 03:45:46;;;;;;;44.20;32.90;;;;;;;1.13;100.00;96524.75;5040597;28;20505;-72
2023/01/08 03:48:14;;;;;;;46.40;33.27;;;;;;;1.18;100.00;96520.91;5004001;28;20313;-69
2023/01/08 03:50:41;;;;;;;47.00;31.63;;;;;;;1.15;100.00;96517.63;5025651;28;20218;-71
2023/01/08 03:53:09;;;;;;;49.87;33.43;;;;;;;1.13;100.00;96521.31;5032583;28;20423;-71
2023/01/08 03:55:36;;;;;;;44.57;31.73;;;;;;;1.15;100.00;96522.03;5038579;28;20204;-72
2023/01/08 03:58:04;;;;;;;43.53;31.27;;;;;;;1.14;100.00;96523.00;5000157;28;20222;-71
2023/01/08 04:00:32;;;;;;;41.13;32.03;;;;;;;1.14;100.00;96526.41;5040387;28;20391;-71
2023/01/08 04:03:00;;;;;;;45.17;31.90;;;;;;;1.13;100.00;96529.97;5043409;28;20686;-70
2023/01/08 04:05:32;;;;;;;43.63;31.20;;;;;;;1.09;100.00;96528.63;5008136;28;20348;-69
2023/01/08 04:07:59;;;;;;;45.17;31.87;;;;;;;1.08;100.00;96523.53;5024929;28;20679;-70
2023/01/08 04:10:27;;;;;;;42.67;30.10;;;;;;;1.05;100.00;96526.41;5039475;28;20586;-72
2023/01/08 04:12:54;;;;;;;46.23;32.33;;;;;;;1.04;100.00;96520.41;5005277;28;20211;-71
2023/01/08 04:15:22;;;;;;;41.63;30.90;;;;;;;0.91;100.00;96518.09;5038047;28;20211;-72
2023/01/08 04:17:49;;;;;;;39.30;30.50;;;;;;;0.84;100.00;96499.53;5045810;28;20200;-71
2023/01/08 04:20:18;;;;;;;44.90;30.43;;;;;;;0.87;100.00;96519.31;5014049;28;20234;-70
2023/01/08 04:22:46;;;;;;;43.07;30.23;;;;;;;0.81;100.00;96515.47;5030023;28;20785;-71
2023/01/08 04:25:13;;;;;;;38.90;27.80;;;;;;;0.89;100.00;96498.31;5033368;28;20218;-70
2023/01/08 04:27:41;;;;;;;44.50;30.53;;;;;;;0.78;100.00;96494.09;4996297;28;20410;-72
2023/01/08 04:30:10;;;;;;;58.83;31.57;;;;;;;0.75;100.00;96489.97;5022608;28;20537;-71
2023/01/08 04:32:37;;;;;;;124.53;36.57;;;;;;;0.67;100.00;96482.81;5044982;28;20439;-71
2023/01/08 04:35:06;;;;;;;50.00;30.07;;;;;;;0.67;100.00;96477.59;5028512;28;20215;-72
2023/01/08 04:37:34;;;;;;;73.03;33.33;;;;;;;0.62;100.00;96471.19;5023486;28;20203;-73
2023/01/08 04:40:02;;;;;;;101.17;33.13;;;;;;;0.58;100.00;96462.81;5038223;28;20721;-72
2023/01/08 04:42:29;;;;;;;41.63;29.03;;;;;;;0.59;100.00;96463.66;4998974;28;20219;-71
2023/01/08 04:44:57;;;;;;;63.07;30.83;;;;;;;0.51;100.00;96454.72;5043459;28;20276;-71
2023/01/08 04:47:24;;;;;;;52.33;29.83;;;;;;;0.49;100.00;96440.19;5027138;28;20587;-72
2023/01/08 04:49:52;;;;;;;43.47;30.00;;;;;;;0.49;100.00;96442.78;5047371;28;20237;-71
2023/01/08 04:52:19;;;;;;;49.70;31.40;;;;;;;0.48;100.00;96444.56;5015901;28;20601;-74
2023/01/08 04:54:48;;;;;;;42.57;29.97;;;;;;;0.40;100.00;96437.47;5029410;28;20211;-71
2023/01/08 04:57:16;;;;;;;36.53;27.23;;;;;;;0.41;100.00;96430.44;5000892;28;20417;-72
2023/01/08 04:59:44;;;;;;;39.77;28.77;;;;;;;0.44;100.00;96437.97;5037402;28;20234;-71
2023/01/08 05:02:11;;;;;;;42.03;29.77;;;;;;;0.43;100.00;96434.56;5047049;28;20203;-73
2023/01/08 05:04:39;;;;;;;36.13;28.13;;;;;;;0.50;100.00;96434.00;5042121;28;20478;-73
2023/01/08 05:07:08;;;;;;;87.53;31.73;;;;;;;0.49;100.00;96430.56;5025017;28;20203;-74
2023/01/08 05:09:35;;;;;;;38.00;28.90;;;;;;;0.50;100.00;96428.78;5028376;28;20425;-73
2023/01/08 05:12:04;;;;;;;164.43;43.43;;;;;;;0.46;100.00;96419.63;5029216;28;20223;-74
2023/01/08 05:14:32;;;;;;;151.20;41.13;;;;;;;0.39;100.00;96428.00;5002622;28;20344;-72
2023/01/08 05:17:00;;;;;;;214.07;48.87;;;;;;;0.35;100.00;96426.59;5042338;28;20196;-72
2023/01/08 05:19:27;;;;;;;130.23;35.87;;;;;;;0.33;100.00;96412.88;4992346;28;20227;-73
2023/01/08 05:21:55;;;;;;;158.67;44.13;;;;;;;0.11;100.00;96391.38;5030883;28;20399;-72
2023/01/08 05:24:22;;;;;;;150.73;42.83;;;;;;;0.12;100.00;96410.44;5038768;28;20317;-73
2023/01/08 05:26:50;;;;;;;162.23;43.27;;;;;;;0.12;100.00;96419.09;5026908;28;20199;-72
2023/01/08 05:29:19;;;;;;;160.07;38.17;;;;;;;0.09;100.00;96416.75;5028944;28;20637;-72
2023/01/08 05:31:46;;;;;;;170.60;38.63;;;;;;;0.04;100.00;96423.31;5039339;28;20686;-71
2023/01/08 05:34:14;;;;;;;93.60;34.13;;;;;;;0.04;100.00;96424.16;5001147;28;20238;-71
2023/01/08 05:36:42;;;;;;;99.70;32.43;;;;;;;0.00;100.00;96422.78;5036576;28;20206;-72
2023/01/08 05:39:09;;;;;;;94.40;34.10;;;;;;;-0.02;100.00;96427.28;5029457;28;20223;-72
2023/01/08 05:41:37;;;;;;;93.70;30.90;;;;;;;0.05;100.00;96419.75;5034372;28;20419;-72
2023/01/08 05:44:05;;;;;;;63.87;28.87;;;;;;;0.09;100.00;96432.38;5025777;28;20217;-71
2023/01/08 05:46:34;;;;;;;101.60;33.20;;;;;;;0.11;100.00;96425.25;5039702;28;20328;-73
2023/01/08 05:49:02;;;;;;;132.23;35.80;;;;;;;0.05;100.00;96418.00;5042234;28;20235;-72
2023/01/08 05:51:29;;;;;;;59.60;26.87;;;;;;;0.00;100.00;96407.16;5001796;28;20561;-72
2023/01/08 05:53:57;;;;;;;63.30;29.10;;;;;;;0.21;100.00;96432.25;5036584;28;20199;-72
2023/01/08 05:56:24;;;;;;;85.87;29.53;;;;;;;0.16;100.00;96434.44;5045521;28;20203;-72
2023/01/08 05:58:53;;;;;;;58.67;30.27;;;;;;;0.20;100.00;96422.78;5013157;28;20487;-72
2023/01/08 06:01:21;;;;;;;124.03;40.70;;;;;;;0.22;100.00;96421.69;5044255;28;20427;-72
2023/01/08 06:03:50;;;;;;;185.23;41.50;;;;;;;0.19;100.00;96408.94;5038941;28;20203;-73
2023/01/08 06:06:18;;;;;;;85.60;34.07;;;;;;;0.33;100.00;96407.66;5000940;28;21162;-73
2023/01/08 06:08:45;;;;;;;72.07;33.40;;;;;;;0.43;100.00;96412.88;5050221;28;20772;-73
2023/01/08 06:11:13;;;;;;;136.73;40.00;;;;;;;0.37;100.00;96418.66;5039449;28;20853;-72
2023/01/08 06:13:42;;;;;;;45.50;26.60;;;;;;;0.45;100.00;96418.78;5024851;28;20214;-71
2023/01/08 06:16:09;;;;;;;163.33;37.50;;;;;;;0.45;100.00;96417.97;5026196;28;20789;-72
2023/01/08 06:18:37;;;;;;;101.60;33.77;;;;;;;0.34;100.00;96413.72;5035130;28;20239;-73
2023/01/08 06:21:07;;;;;;;118.13;35.07;;;;;;;0.11;100.00;96403.56;5007214;28;20226;-72
2023/01/08 06:23:34;;;;;;;87.60;32.37;;;;;;;0.32;100.00;96423.47;5043594;28;20206;-71
2023/01/08 06:26:02;;;;;;;193.30;37.57;;;;;;;0.20;100.00;96423.63;5039056;28;20206;-72
2023/01/08 06:28:31;;;;;;;70.37;30.77;;;;;;;0.28;100.00;96428.94;5033376;28;20306;-71
2023/01/08 06:30:58;;;;;;;130.67;36.37;;;;;;;0.14;100.00;96426.75;5021784;28;20207;-73
2023/01/08 06:33:26;;;;;;;124.27;32.33;;;;;;;0.11;100.00;96414.84;5042680;28;20260;-71
2023/01/08 06:35:53;;;;;;;101.50;31.50;;;;;;;0.15;100.00;96417.97;5019741;28;20689;-72
2023/01/08 06:38:22;;;;;;;93.80;34.27;;;;;;;0.12;100.00;96408.66;5006325;28;20618;-73
2023/01/08 06:40:50;;;;;;;88.37;32.30;;;;;;;0.23;100.00;96412.91;5042433;28;20226;-73
2023/01/08 06:43:20;;;;;;;141.77;44.80;;;;;;;0.20;100.00;96415.78;5041276;28;20207;-72
2023/01/08 06:45:53;;;;;;;98.10;36.47;;;;;;;0.32;100.00;96419.06;5024376;28;20657;-73
2023/01/08 06:48:21;;;;;;;181.33;42.20;;;;;;;0.30;100.00;96417.56;5042492;28;20234;-74
2023/01/08 06:50:48;;;;;;;44.50;32.27;;;;;;;0.43;100.00;96408.50;5043313;28;20210;-75
2023/01/08 06:53:16;;;;;;;94.80;34.17;;;;;;;0.41;100.00;96418.25;5008222;28;20223;-75
2023/01/08 06:55:45;;;;;;;225.63;45.33;;;;;;;0.36;100.00;96420.41;5033475;28;20202;-74
2023/01/08 06:58:12;;;;;;;264.73;56.50;;;;;;;0.33;100.00;96422.50;5033461;28;20226;-75
2023/01/08 07:00:40;;;;;;;145.50;40.67;;;;;;;0.32;100.00;96424.28;5033847;28;20250;-73
2023/01/08 07:03:07;;;;;;;170.50;46.77;;;;;;;0.27;100.00;96429.06;5029777;28;20216;-74
2023/01/08 07:05:35;;;;;;;142.53;42.10;;;;;;;0.31;100.00;96430.44;5047977;28;20834;-75
2023/01/08 07:08:03;;;;;;;250.97;54.93;;;;;;;0.22;100.00;96423.47;5008300;28;20208;-72
2023/01/08 07:10:31;;;;;;;261.40;44.87;;;;;;;0.16;100.00;96421.41;5040751;28;20199;-72
2023/01/08 07:12:59;;;;;;;189.50;44.37;;;;;;;0.22;100.00;96418.25;5045660;28;20215;-74
2023/01/08 07:15:27;;;;;;;186.70;48.20;;;;;;;0.24;100.00;96422.38;5028675;28;20218;-73
2023/01/08 07:17:54;;;;;;;156.43;39.00;;;;;;;0.23;100.00;96418.13;5010505;28;20214;-71
2023/01/08 07:20:22;;;;;;;179.17;43.83;;;;;;;0.30;100.00;96420.97;5042907;28;20214;-72
2023/01/08 07:22:50;;;;;;;164.40;41.47;;;;;;;0.30;100.00;96415.78;4998828;28;20226;-71
2023/01/08 07:25:17;;;;;;;146.13;40.17;;;;;;;0.27;100.00;96416.03;5047039;28;20207;-72
2023/01/08 07:27:45;;;;;;;109.67;37.77;;;;;;;0.33;100.00;96415.50;4982758;28;20215;-72
2023/01/08 07:30:14;;;;;;;224.57;43.67;;;;;;;0.26;100.00;96414.41;5039627;28;20231;-72
2023/01/08 07:32:59;;;;;;;125.63;40.10;;;;;;;0.27;100.00;96418.66;5028621;28;20202;-72
2023/01/08 07:35:27;;;;;;;189.67;41.63;;;;;;;0.20;100.00;96413.19;5024968;28;20203;-73
2023/01/08 07:37:57;;;;;;;265.17;47.67;;;;;;;0.18;100.00;96415.09;5039552;28;20203;-72
2023/01/08 07:40:24;;;;;;;93.27;34.27;;;;;;;0.36;100.00;96411.78;5047120;28;20199;-72
2023/01/08 07:42:59;;;;;;;58.53;31.33;;;;;;;0.35;100.00;96413.56;5001019;28;20223;-72
2023/01/08 07:45:28;;;;;;;110.07;36.10;;;;;;;0.25;100.00;96400.56;5042971;28;20206;-72
2023/01/08 07:47:56;;;;;;;135.73;37.80;;;;;;;0.31;100.00;96408.78;5020408;28;20206;-71
2023/01/08 07:50:24;;;;;;;139.67;37.83;;;;;;;0.36;100.00;96419.63;5027564;28;20211;-72
2023/01/08 07:52:52;;;;;;;65.83;33.50;;;;;;;0.41;100.00;96420.03;5043994;28;20313;-71
2023/01/08 07:55:19;;;;;;;63.50;35.57;;;;;;;0.41;100.00;96410.44;5046945;28;20203;-72
2023/01/08 07:57:47;;;;;;;49.63;33.13;;;;;;;0.53;100.00;96418.09;4982441;28;21202;-74
2023/01/08 08:00:15;;;;;;;52.53;33.87;;;;;;;0.43;100.00;96418.94;5038733;28;20227;-74
2023/01/08 08:02:44;;;;;;;72.10;33.70;;;;;;;0.21;100.00;96427.88;5039866;28;20223;-71
2023/01/08 08:05:12;;;;;;;53.90;32.87;;;;;;;0.29;100.00;96419.34;5016495;28;20210;-72
2023/01/08 08:07:39;;;;;;;46.53;30.43;;;;;;;0.34;100.00;96416.31;5040273;28;20981;-71
2023/01/08 08:10:07;;;;;;;41.13;28.93;;;;;;;0.48;100.00;96420.28;5044758;28;20231;-73
2023/01/08 08:12:35;;;;;;;50.73;30.47;;;;;;;0.37;100.00;96411.63;5003537;28;21842;-71
2023/01/08 08:15:04;;;;;;;38.03;26.83;;;;;;;0.56;100.00;96423.03;5040864;28;20218;-72
2023/01/08 08:17:32;;;;;;;46.33;32.40;;;;;;;0.50;100.00;96426.19;5035296;28;21112;-69
2023/01/08 08:20:01;;;;;;;38.43;28.17;;;;;;;0.35;100.00;96405.75;4989467;28;20223;-71
2023/01/08 08:22:29;;;;;;;38.03;27.43;;;;;;;0.53;100.00;96426.72;5037541;28;20284;-72
2023/01/08 08:24:56;;;;;;;35.83;26.53;;;;;;;0.46;100.00;96430.03;5042916;28;20213;-73
2023/01/08 08:27:24;;;;;;;37.57;26.10;;;;;;;0.45;100.00;96423.19;5035706;28;20200;-72
2023/01/08 08:29:51;;;;;;;33.27;25.67;;;;;;;0.50;100.00;96426.19;4978576;28;21639;-71
2023/01/08 08:32:19;;;;;;;35.70;24.83;;;;;;;0.40;100.00;96418.38;5034756;28;20203;-70
2023/01/08 08:34:46;;;;;;;35.93;25.83;;;;;;;0.43;100.00;96428.53;5025286;28;20207;-72
2023/01/08 08:37:15;;;;;;;33.97;26.50;;;;;;;0.48;100.00;96426.31;5022459;28;20818;-72
2023/01/08 08:39:43;;;;;;;39.63;27.63;;;;;;;0.39;100.00;96416.72;5019338;28;20917;-72
2023/01/08 08:42:10;;;;;;;32.80;26.30;;;;;;;0.44;100.00;96419.72;5039692;28;20216;-73
2023/01/08 08:44:38;;;;;;;37.00;26.77;;;;;;;0.48;100.00;96423.72;4987578;28;20222;-74
2023/01/08 08:47:09;;;;;;;33.87;26.80;;;;;;;0.46;100.00;96420.41;5028402;28;20222;-71
2023/01/08 08:49:36;;;;;;;43.70;28.20;;;;;;;0.52;100.00;96438.09;5018542;28;20226;-71
2023/01/08 08:52:04;;;;;;;36.87;26.47;;;;;;;0.68;100.00;96437.53;5003004;28;20212;-72
2023/01/08 08:54:33;;;;;;;39.30;26.47;;;;;;;0.72;100.00;96440.69;5045426;28;20203;-74
2023/01/08 08:57:01;;;;;;;40.50;27.90;;;;;;;0.68;100.00;96441.94;5041398;28;20642;-72
2023/01/08 08:59:28;;;;;;;33.27;26.33;;;;;;;0.79;100.00;96443.56;4999704;28;20230;-72
2023/01/08 09:01:56;;;;;;;39.37;28.43;;;;;;;0.80;100.00;96432.19;5021303;28;20233;-71
2023/01/08 09:04:24;;;;;;;34.77;26.00;;;;;;;0.85;100.00;96429.97;5034073;28;20226;-74
2023/01/08 09:06:51;;;;;;;38.50;26.27;;;;;;;0.79;100.00;96433.13;5027921;28;20214;-72
2023/01/08 09:09:19;;;;;;;33.67;25.47;;;;;;;0.75;100.00;96443.03;5012848;28;20582;-72
2023/01/08 09:11:48;;;;;;;39.80;27.20;;;;;;;0.74;100.00;96443.97;5042916;28;20411;-70
2023/01/08 09:14:16;;;;;;;32.97;27.13;;;;;;;0.76;100.00;96442.06;4998866;28;21876;-72
2023/01/08 09:16:43;;;;;;;36.00;26.07;;;;;;;0.74;100.00;96437.94;5025160;28;20226;-73
2023/01/08 09:19:11;;;;;;;35.37;26.43;;;;;;;0.68;100.00;96436.72;5037796;28;20250;-72
2023/01/08 09:21:38;;;;;;;37.77;26.77;;;;;;;0.72;100.00;96446.72;5042985;28;20214;-72
2023/01/08 09:24:07;;;;;;;41.37;28.03;;;;;;;0.70;100.00;96443.44;5020006;28;20759;-70
2023/01/08 09:26:35;;;;;;;39.80;27.73;;;;;;;0.68;100.00;96437.53;5046998;28;20207;-73
2023/01/08 09:29:03;;;;;;;40.47;27.43;;;;;;;0.72;100.00;96438.91;4999218;28;20243;-72
2023/01/08 09:31:31;;;;;;;40.40;28.57;;;;;;;0.78;100.00;96441.94;4988369;28;20249;-71
2023/01/08 09:33:59;;;;;;;43.33;28.17;;;;;;;0.88;100.00;96439.28;4986779;28;20417;-73
2023/01/08 09:36:26;;;;;;;43.77;31.77;;;;;;;0.89;100.00;96444.38;5031526;28;21250;-72
2023/01/08 09:38:54;;;;;;;39.47;28.37;;;;;;;0.89;100.00;96441.75;5042720;28;20266;-71
2023/01/08 09:41:25;;;;;;;38.53;27.10;;;;;;;0.92;100.00;96436.25;5029878;28;20683;-71
2023/01/08 09:43:54;;;;;;;36.60;26.70;;;;;;;0.90;100.00;96419.94;5045301;28;20222;-71
2023/01/08 09:46:24;;;;;;;37.93;28.20;;;;;;;0.85;100.00;96412.50;5020566;28;20904;-71
2023/01/08 09:48:54;;;;;;;34.00;25.50;;;;;;;0.88;100.00;96402.75;5044492;28;20658;-71
2023/01/08 09:51:23;;;;;;;66.70;29.87;;;;;;;0.82;100.00;96419.81;4978082;28;20222;-72
2023/01/08 09:53:55;;;;;;;33.80;24.77;;;;;;;0.84;100.00;96426.50;5020776;28;20329;-73
2023/01/08 09:56:23;;;;;;;33.37;24.93;;;;;;;1.01;100.00;96432.78;5027385;28;20234;-73
2023/01/08 09:58:52;;;;;;;30.93;23.83;;;;;;;1.02;100.00;96428.41;5036031;28;20952;-72
2023/01/08 10:01:23;;;;;;;31.73;23.13;;;;;;;1.14;100.00;96422.03;5036267;28;20204;-72
2023/01/08 10:03:55;;;;;;;35.73;26.20;;;;;;;1.24;100.00;96415.94;5038712;28;20491;-72
2023/01/08 10:06:24;;;;;;;32.00;24.77;;;;;;;1.28;100.00;96423.34;4998826;28;20215;-73
2023/01/08 10:08:52;;;;;;;29.03;25.03;;;;;;;1.28;100.00;96414.69;5028837;28;20881;-73
2023/01/08 10:11:20;;;;;;;30.67;25.90;;;;;;;1.45;100.00;96407.88;5042458;28;20211;-72
2023/01/08 10:13:50;;;;;;;29.50;25.27;;;;;;;1.41;100.00;96402.13;5026108;28;20507;-74
2023/01/08 10:16:24;;;;;;;30.97;25.40;;;;;;;1.42;100.00;96398.56;5044495;28;21260;-72
2023/01/08 10:18:52;;;;;;;27.87;22.87;;;;;;;1.55;100.00;96392.16;5038859;28;21012;-72
2023/01/08 10:21:20;;;;;;;29.80;24.07;;;;;;;1.39;100.00;96380.59;4997653;28;20218;-72
2023/01/08 10:23:52;;;;;;;27.47;23.90;;;;;;;1.51;100.00;96398.66;5020724;28;20230;-73
2023/01/08 10:26:27;;;;;;;28.97;22.77;;;;;;;1.56;100.00;96376.34;5043265;28;20203;-72
2023/01/08 10:29:11;;;;;;;28.47;23.97;;;;;;;1.67;100.00;96390.97;5024764;28;20426;-69
2023/01/08 10:31:45;;;;;;;29.70;24.10;;;;;;;1.67;100.00;96379.72;5016589;28;20762;-71
2023/01/08 10:34:26;;;;;;;28.60;23.23;;;;;;;1.77;100.00;96371.81;5041914;28;20294;-71
2023/01/08 10:36:54;;;;;;;24.93;21.60;;;;;;;1.78;100.00;96378.69;4991250;28;20600;-73
2023/01/08 10:39:26;;;;;;;26.27;23.03;;;;;;;1.68;100.00;96369.09;5020332;28;20550;-73
2023/01/08 10:41:56;;;;;;;23.30;20.80;;;;;;;1.92;100.00;96372.94;5044907;28;20203;-72
2023/01/08 10:44:25;;;;;;;27.47;22.67;;;;;;;1.94;100.00;96360.53;5025841;28;20234;-73
2023/01/08 10:46:57;;;;;;;27.70;22.20;;;;;;;2.19;100.00;96368.59;5039077;28;20203;-71
2023/01/08 10:49:31;;;;;;;25.07;22.20;;;;;;;2.06;100.00;96366.38;5042498;28;20234;-73
2023/01/08 10:51:59;;;;;;;22.67;20.23;;;;;;;2.20;100.00;96365.00;4992224;28;20215;-74
2023/01/08 10:54:38;;;;;;;21.43;18.63;;;;;;;2.35;100.00;96351.38;5018428;28;20845;-73
2023/01/08 10:57:20;;;;;;;21.00;18.83;;;;;;;2.50;100.00;96354.25;5043280;28;20297;-75
2023/01/08 10:59:47;;;;;;;20.37;17.93;;;;;;;2.61;100.00;96354.00;5026226;28;20237;-74
2023/01/08 11:02:21;;;;;;;20.13;18.03;;;;;;;2.58;100.00;96341.22;5043884;28;20773;-69
2023/01/08 11:04:50;;;;;;;20.07;18.03;;;;;;;2.74;100.00;96346.56;5025268;28;20234;-72
2023/01/08 11:07:20;;;;;;;17.83;15.53;;;;;;;2.57;100.00;96342.22;4997078;28;20234;-72
2023/01/08 11:09:50;;;;;;;18.40;16.60;;;;;;;2.64;100.00;96340.63;5027313;28;20895;-70
2023/01/08 11:12:34;;;;;;;16.70;14.90;;;;;;;2.59;100.00;96348.94;5023810;28;20217;-73
2023/01/08 11:15:03;;;;;;;16.57;14.87;;;;;;;2.57;100.00;96345.66;5021915;28;20203;-70
2023/01/08 11:17:33;;;;;;;30.23;26.37;;;;;;;2.84;100.00;96322.09;5032602;28;20231;-73
2023/01/08 11:20:09;;;;;;;17.50;15.80;;;;;;;2.80;100.00;96282.31;5037108;28;20428;-72
2023/01/08 11:22:36;;;;;;;15.47;14.03;;;;;;;3.17;100.00;96298.66;5005654;28;20213;-73